createdAt,value
2019-02-05T00:00:37.253Z,99.90
2019-02-05T00:03:23.364Z,99.90
2019-02-05T00:06:09.249Z,99.90
2019-02-05T00:08:55.649Z,99.90
2019-02-05T00:11:41.541Z,99.90
2019-02-05T00:14:27.427Z,99.90
2019-02-05T00:17:13.324Z,99.90
2019-02-05T00:19:59.198Z,99.90
2019-02-05T00:22:45.295Z,99.90
2019-02-05T00:25:25.138Z,99.90
2019-02-05T00:28:11.034Z,99.90
2019-02-05T00:30:57.141Z,99.90
2019-02-05T00:33:43.031Z,99.90
2019-02-05T00:36:29.219Z,99.90
2019-02-05T00:39:15.325Z,99.90
2019-02-05T00:42:01.349Z,99.90
2019-02-05T00:44:47.250Z,99.90
2019-02-05T00:50:21.686Z,99.90
2019-02-05T00:53:07.615Z,99.90
2019-02-05T00:55:53.498Z,99.90
2019-02-05T00:58:39.415Z,99.90
2019-02-05T01:01:25.294Z,99.90
2019-02-05T01:04:11.191Z,99.90
2019-02-05T01:06:57.298Z,99.90
2019-02-05T01:09:43.921Z,99.90
2019-02-05T01:12:29.811Z,99.90
2019-02-05T01:18:15.057Z,99.90
2019-02-05T01:21:00.953Z,99.90
2019-02-05T01:23:47.061Z,99.90
2019-02-05T01:26:34.387Z,99.90
2019-02-05T01:29:20.563Z,99.90
2019-02-05T01:32:06.661Z,99.90
2019-02-05T01:34:54.005Z,99.90
2019-02-05T01:37:39.884Z,99.90
2019-02-05T01:40:27.013Z,99.90
2019-02-05T01:43:13.122Z,99.90
2019-02-05T01:45:59.038Z,99.90
2019-02-05T01:48:45.218Z,99.90
2019-02-05T01:51:31.197Z,99.90
2019-02-05T01:54:17.078Z,99.90
2019-02-05T01:57:02.965Z,99.90
2019-02-05T01:59:48.842Z,99.90
2019-02-05T02:02:35.273Z,99.90
2019-02-05T02:05:21.357Z,99.90
2019-02-05T02:08:07.275Z,99.90
2019-02-05T02:10:53.148Z,99.90
2019-02-05T02:13:39.282Z,99.90
2019-02-05T02:16:25.403Z,99.60
2019-02-05T02:19:11.320Z,99.30
2019-02-05T02:21:57.429Z,98.40
2019-02-05T02:24:43.447Z,98.80
2019-02-05T02:27:22.430Z,99.70
2019-02-05T02:30:30.304Z,99.90
2019-02-05T02:33:16.203Z,99.90
2019-02-05T02:36:02.103Z,99.90
2019-02-05T02:38:47.995Z,99.90
2019-02-05T02:41:33.891Z,99.90
2019-02-05T02:44:19.776Z,99.90
2019-02-05T02:47:05.671Z,99.90
2019-02-05T02:49:51.621Z,99.90
2019-02-05T02:52:37.502Z,99.90
2019-02-05T02:55:23.707Z,99.90
2019-02-05T02:58:09.591Z,99.90
2019-02-05T03:00:55.481Z,99.90
2019-02-05T03:03:41.587Z,99.90
2019-02-05T03:06:27.582Z,99.90
2019-02-05T03:09:13.883Z,98.90
2019-02-05T03:11:59.976Z,98.40
2019-02-05T03:14:45.942Z,98.20
2019-02-05T03:17:31.852Z,97.60
2019-02-05T03:20:17.828Z,97.40
2019-02-05T03:23:03.838Z,98.40
2019-02-05T03:25:49.807Z,98.70
2019-02-05T03:28:29.234Z,99.10
2019-02-05T03:31:15.360Z,99.90
2019-02-05T03:34:01.251Z,99.90
2019-02-05T03:36:47.140Z,99.90
2019-02-05T03:39:33.056Z,99.90
2019-02-05T03:42:18.943Z,99.90
2019-02-05T03:45:04.949Z,99.90
2019-02-05T03:48:12.605Z,99.90
2019-02-05T03:51:22.467Z,99.90
2019-02-05T03:54:30.371Z,99.90
2019-02-05T03:57:38.049Z,99.90
2019-02-05T04:00:45.724Z,99.90
2019-02-05T04:03:32.771Z,99.90
2019-02-05T04:06:38.537Z,99.90
2019-02-05T04:09:46.622Z,99.90
2019-02-05T04:12:52.383Z,99.90
2019-02-05T04:15:58.151Z,99.90
2019-02-05T04:19:03.924Z,99.90
2019-02-05T04:24:57.088Z,99.90
2019-02-05T04:28:02.856Z,99.90
2019-02-05T04:31:10.801Z,99.90
2019-02-05T04:34:18.566Z,99.90
2019-02-05T04:37:07.300Z,99.90
2019-02-05T04:40:14.975Z,99.90
2019-02-05T04:47:02.359Z,99.90
2019-02-05T04:50:08.129Z,99.90
2019-02-05T04:53:15.818Z,99.90
2019-02-05T04:56:23.481Z,99.90
2019-02-05T04:59:31.236Z,99.90
2019-02-05T05:02:38.901Z,99.90
2019-02-05T05:05:44.675Z,99.90
2019-02-05T05:11:18.960Z,99.90
2019-02-05T05:14:04.894Z,99.90
2019-02-05T05:16:50.803Z,99.90
2019-02-05T05:22:25.302Z,99.90
2019-02-05T05:25:11.386Z,99.90
2019-02-05T05:28:19.067Z,99.90
2019-02-05T05:30:58.381Z,99.90
2019-02-05T05:33:44.285Z,99.90
2019-02-05T05:36:30.589Z,99.90
2019-02-05T05:39:18.389Z,99.90
2019-02-05T05:42:04.266Z,99.90
2019-02-05T05:44:50.206Z,99.90
2019-02-05T05:47:36.101Z,99.90
2019-02-05T05:50:21.989Z,99.90
2019-02-05T05:53:08.178Z,99.90
2019-02-05T05:55:54.083Z,99.90
2019-02-05T05:58:40.072Z,99.50
2019-02-05T06:01:26.235Z,98.70
2019-02-05T06:04:12.126Z,99.10
2019-02-05T06:06:58.338Z,99.30
2019-02-05T06:09:44.225Z,98.00
2019-02-05T06:16:03.917Z,98.20
2019-02-05T06:18:49.812Z,97.80
2019-02-05T06:21:35.932Z,97.70
2019-02-05T06:24:22.354Z,96.90
2019-02-05T06:27:08.246Z,96.90
2019-02-05T06:32:36.011Z,97.70
2019-02-05T06:35:21.887Z,97.30
2019-02-05T06:38:08.089Z,95.60
2019-02-05T06:40:54.077Z,96.60
2019-02-05T06:43:39.974Z,97.20
2019-02-05T06:46:25.950Z,97.30
2019-02-05T06:49:11.870Z,96.90
2019-02-05T06:51:58.042Z,96.40
2019-02-05T06:54:43.943Z,96.80
2019-02-05T06:57:29.817Z,97.80
2019-02-05T07:00:37.496Z,98.20
2019-02-05T07:03:23.370Z,99.90
2019-02-05T07:06:09.407Z,99.90
2019-02-05T07:08:55.523Z,99.90
2019-02-05T07:11:41.823Z,99.90
2019-02-05T07:14:27.716Z,99.70
2019-02-05T07:17:13.704Z,99.10
2019-02-05T07:19:59.578Z,97.70
2019-02-05T07:22:45.482Z,98.80
2019-02-05T07:25:31.773Z,98.50
2019-02-05T07:28:17.661Z,97.50
2019-02-05T07:31:03.760Z,97.00
2019-02-05T07:33:43.848Z,96.40
2019-02-05T07:36:30.215Z,96.70
2019-02-05T07:39:16.329Z,97.40
2019-02-05T07:42:02.523Z,96.50
2019-02-05T07:44:48.718Z,96.50
2019-02-05T07:47:36.534Z,95.90
2019-02-05T07:50:44.451Z,95.80
2019-02-05T07:53:33.177Z,95.60
2019-02-05T07:56:18.145Z,94.80
2019-02-05T07:59:10.343Z,94.00
2019-02-05T08:01:52.195Z,93.40
2019-02-05T08:04:38.263Z,92.80
2019-02-05T08:07:24.155Z,92.90
2019-02-05T08:10:31.843Z,92.30
2019-02-05T08:13:17.731Z,93.20
2019-02-05T08:16:03.951Z,93.80
2019-02-05T08:18:50.061Z,91.40
2019-02-05T08:21:35.990Z,90.60
2019-02-05T08:27:10.480Z,91.90
2019-02-05T08:29:56.367Z,92.00
2019-02-05T08:32:42.303Z,90.90
2019-02-05T08:35:22.076Z,90.20
2019-02-05T08:38:08.447Z,88.50
2019-02-05T08:40:54.330Z,88.90
2019-02-05T08:43:40.232Z,90.00
2019-02-05T08:46:26.329Z,88.60
2019-02-05T08:49:12.435Z,90.50
2019-02-05T08:51:58.318Z,90.50
2019-02-05T08:54:44.423Z,90.50
2019-02-05T08:57:30.530Z,91.00
2019-02-05T09:00:36.302Z,92.10
2019-02-05T09:03:22.188Z,90.90
2019-02-05T09:06:08.577Z,88.60
2019-02-05T09:08:54.565Z,85.60
2019-02-05T09:11:40.559Z,83.30
2019-02-05T09:14:26.437Z,81.30
2019-02-05T09:17:12.378Z,80.40
2019-02-05T09:19:58.267Z,79.30
2019-02-05T09:22:44.759Z,79.70
2019-02-05T09:25:30.654Z,80.90
2019-02-05T09:28:16.550Z,79.60
2019-02-05T09:31:02.638Z,76.80
2019-02-05T09:33:48.634Z,76.10
2019-02-05T09:36:28.806Z,76.00
2019-02-05T09:39:14.802Z,74.50
2019-02-05T09:42:00.879Z,73.70
2019-02-05T09:44:47.274Z,74.50
2019-02-05T09:47:33.378Z,74.40
2019-02-05T09:50:19.271Z,74.40
2019-02-05T09:53:05.283Z,74.20
2019-02-05T09:55:51.245Z,73.40
2019-02-05T09:58:37.432Z,72.90
2019-02-05T10:01:23.439Z,70.20
2019-02-05T10:04:09.336Z,71.00
2019-02-05T10:06:55.346Z,70.20
2019-02-05T10:09:41.546Z,68.20
2019-02-05T10:12:29.347Z,66.90
2019-02-05T10:15:35.117Z,67.10
2019-02-05T10:18:21.319Z,67.00
2019-02-05T10:21:07.307Z,66.00
2019-02-05T10:23:53.226Z,65.10
2019-02-05T10:26:39.112Z,64.80
2019-02-05T10:29:25.020Z,64.90
2019-02-05T10:32:11.212Z,64.80
2019-02-05T10:34:57.208Z,65.10
2019-02-05T10:37:36.934Z,64.50
2019-02-05T10:40:23.934Z,64.10
2019-02-05T10:43:10.037Z,64.70
2019-02-05T10:45:56.434Z,64.20
2019-02-05T10:48:42.315Z,63.60
2019-02-05T10:51:28.462Z,64.20
2019-02-05T10:54:14.348Z,64.60
2019-02-05T10:57:00.263Z,65.20
2019-02-05T10:59:46.245Z,64.50
2019-02-05T11:02:32.220Z,63.80
2019-02-05T11:05:40.001Z,63.00
2019-02-05T11:08:25.991Z,62.00
2019-02-05T11:11:12.114Z,61.40
2019-02-05T11:13:58.023Z,61.90
2019-02-05T11:16:43.911Z,61.80
2019-02-05T11:19:29.813Z,61.80
2019-02-05T11:25:04.914Z,61.70
2019-02-05T11:27:50.794Z,61.40
2019-02-05T11:30:58.487Z,61.70
2019-02-05T11:33:44.607Z,62.10
2019-02-05T11:36:30.744Z,62.40
2019-02-05T11:39:13.193Z,61.80
2019-02-05T11:41:59.094Z,61.40
2019-02-05T11:44:44.983Z,60.20
2019-02-05T11:47:30.875Z,59.10
2019-02-05T11:50:11.722Z,59.20
2019-02-05T11:52:57.623Z,58.90
2019-02-05T11:55:43.612Z,58.90
2019-02-05T11:58:29.612Z,58.00
2019-02-05T12:01:16.313Z,56.90
2019-02-05T12:04:02.682Z,56.10
2019-02-05T12:06:48.560Z,55.90
2019-02-05T12:09:34.685Z,56.10
2019-02-05T12:12:20.590Z,55.70
2019-02-05T12:15:28.279Z,56.10
2019-02-05T12:18:14.304Z,57.00
2019-02-05T12:21:00.942Z,57.00
2019-02-05T12:23:47.244Z,57.20
2019-02-05T12:26:33.136Z,57.10
2019-02-05T12:29:19.036Z,57.20
2019-02-05T12:32:04.917Z,56.20
2019-02-05T12:34:51.126Z,56.30
2019-02-05T12:37:37.010Z,56.20
2019-02-05T12:40:22.915Z,56.40
2019-02-05T12:43:08.796Z,56.60
2019-02-05T12:45:54.690Z,55.80
2019-02-05T12:48:34.262Z,55.70
2019-02-05T12:51:20.258Z,56.10
2019-02-05T12:54:06.226Z,56.50
2019-02-05T12:56:52.303Z,56.80
2019-02-05T12:59:38.264Z,57.90
2019-02-05T13:02:24.183Z,57.10
2019-02-05T13:05:10.283Z,57.60
2019-02-05T13:08:14.754Z,57.60
2019-02-05T13:11:00.661Z,57.50
2019-02-05T13:13:46.640Z,58.10
2019-02-05T13:16:34.554Z,56.80
2019-02-05T13:19:20.462Z,56.50
2019-02-05T13:22:06.637Z,56.60
2019-02-05T13:24:52.771Z,56.20
2019-02-05T13:27:38.655Z,56.60
2019-02-05T13:30:25.449Z,56.80
2019-02-05T13:33:11.661Z,57.20
2019-02-05T13:35:57.554Z,57.00
2019-02-05T13:42:27.219Z,56.90
2019-02-05T13:45:34.930Z,57.40
2019-02-05T13:48:20.806Z,57.70
2019-02-05T13:51:06.699Z,57.00
2019-02-05T13:53:52.583Z,57.60
2019-02-05T13:56:38.470Z,57.20
2019-02-05T13:59:24.355Z,57.10
2019-02-05T14:02:10.347Z,56.60
2019-02-05T14:04:56.236Z,57.10
2019-02-05T14:07:42.215Z,57.00
2019-02-05T14:10:48.001Z,57.70
2019-02-05T14:13:34.107Z,57.80
2019-02-05T14:16:13.197Z,58.10
2019-02-05T14:18:59.310Z,58.00
2019-02-05T14:21:46.877Z,58.70
2019-02-05T14:24:32.763Z,58.80
2019-02-05T14:27:18.765Z,58.10
2019-02-05T14:30:26.528Z,59.10
2019-02-05T14:33:12.432Z,58.90
2019-02-05T14:35:58.401Z,59.60
2019-02-05T14:38:44.390Z,59.50
2019-02-05T14:41:30.496Z,59.80
2019-02-05T14:44:16.631Z,59.80
2019-02-05T14:47:02.946Z,59.80
2019-02-05T14:49:49.080Z,59.80
2019-02-05T14:52:35.059Z,60.70
2019-02-05T14:55:14.227Z,61.10
2019-02-05T14:58:00.331Z,61.00
2019-02-05T15:00:46.227Z,61.30
2019-02-05T15:03:32.107Z,62.00
2019-02-05T15:06:18.234Z,62.20
2019-02-05T15:09:05.247Z,61.90
2019-02-05T15:11:51.126Z,62.40
2019-02-05T15:14:37.249Z,62.70
2019-02-05T15:17:23.134Z,63.80
2019-02-05T15:20:30.807Z,64.50
2019-02-05T15:23:16.910Z,64.70
2019-02-05T15:26:03.346Z,64.90
2019-02-05T15:28:49.463Z,64.90
2019-02-05T15:31:35.365Z,64.90
2019-02-05T15:34:21.252Z,65.30
2019-02-05T15:37:07.443Z,64.90
2019-02-05T15:39:55.445Z,65.30
2019-02-05T15:42:41.588Z,66.00
2019-02-05T15:45:27.660Z,67.00
2019-02-05T15:48:13.549Z,67.00
2019-02-05T15:50:52.731Z,67.60
2019-02-05T15:53:39.249Z,68.10
2019-02-05T15:56:25.195Z,68.40
2019-02-05T15:59:11.215Z,68.30
2019-02-05T16:04:45.423Z,69.00
2019-02-05T16:07:31.611Z,68.90
2019-02-05T16:10:18.416Z,69.60
2019-02-05T16:15:52.615Z,71.60
2019-02-05T16:18:38.511Z,71.30
2019-02-05T16:21:24.405Z,70.80
2019-02-05T16:24:55.153Z,71.30
2019-02-05T16:27:41.434Z,70.60
2019-02-05T16:30:29.634Z,71.30
2019-02-05T16:33:15.528Z,71.70
2019-02-05T16:36:01.425Z,72.30
2019-02-05T16:38:47.306Z,73.20
2019-02-05T16:41:33.228Z,74.10
2019-02-05T16:44:19.844Z,74.10
2019-02-05T16:47:05.751Z,74.00
2019-02-05T16:49:51.647Z,73.60
2019-02-05T16:52:37.551Z,74.10
2019-02-05T16:55:23.667Z,74.60
2019-02-05T16:58:09.969Z,75.00
2019-02-05T17:00:55.863Z,75.70
2019-02-05T17:03:41.748Z,75.80
2019-02-05T17:06:27.882Z,75.80
2019-02-05T17:09:13.974Z,76.50
2019-02-05T17:11:59.855Z,77.20
2019-02-05T17:14:45.953Z,77.00
2019-02-05T17:17:31.851Z,77.30
2019-02-05T17:20:37.611Z,77.60
2019-02-05T17:23:24.060Z,78.50
2019-02-05T17:26:09.949Z,78.10
2019-02-05T17:28:55.841Z,78.20
2019-02-05T17:31:41.790Z,78.50
2019-02-05T17:34:27.687Z,78.30
2019-02-05T17:37:13.869Z,78.40
2019-02-05T17:40:00.014Z,78.60
2019-02-05T17:42:45.982Z,79.10
2019-02-05T17:45:51.759Z,79.30
2019-02-05T17:48:31.138Z,78.70
2019-02-05T17:51:17.035Z,78.10
2019-02-05T17:54:03.239Z,78.90
2019-02-05T17:56:49.114Z,78.80
2019-02-05T17:59:35.010Z,78.60
2019-02-05T18:02:20.903Z,79.00
2019-02-05T18:05:28.588Z,79.00
2019-02-05T18:08:16.590Z,80.50
2019-02-05T18:11:03.095Z,81.70
2019-02-05T18:13:48.976Z,82.00
2019-02-05T18:16:34.875Z,82.60
2019-02-05T18:19:20.859Z,83.00
2019-02-05T18:22:08.079Z,82.90
2019-02-05T18:24:54.552Z,83.10
2019-02-05T18:27:40.446Z,84.50
2019-02-05T18:30:48.270Z,84.80
2019-02-05T18:33:34.434Z,84.60
2019-02-05T18:36:20.525Z,84.90
2019-02-05T18:39:06.615Z,86.20
2019-02-05T18:41:52.515Z,86.60
2019-02-05T18:44:38.402Z,87.10
2019-02-05T18:47:24.547Z,88.00
2019-02-05T18:50:06.647Z,88.30
2019-02-05T18:52:52.938Z,88.50
2019-02-05T18:56:00.606Z,89.10
2019-02-05T18:58:48.398Z,89.40
2019-02-05T19:01:34.281Z,89.10
2019-02-05T19:04:20.283Z,89.00
2019-02-05T19:07:06.166Z,89.20
2019-02-05T19:09:52.067Z,88.70
2019-02-05T19:12:38.274Z,89.00
2019-02-05T19:15:46.169Z,89.10
2019-02-05T19:18:32.063Z,89.30
2019-02-05T19:21:17.951Z,88.80
2019-02-05T19:27:04.697Z,88.90
2019-02-05T19:29:50.985Z,88.00
2019-02-05T19:32:36.868Z,88.50
2019-02-05T19:35:22.771Z,89.70
2019-02-05T19:38:08.664Z,90.00
2019-02-05T19:40:57.439Z,90.10
2019-02-05T19:43:42.708Z,90.90
2019-02-05T19:46:48.563Z,91.60
2019-02-05T19:49:29.284Z,91.60
2019-02-05T19:52:15.165Z,91.40
2019-02-05T19:55:01.300Z,92.00
2019-02-05T19:57:47.418Z,92.30
2019-02-05T20:00:33.309Z,92.80
2019-02-05T20:03:19.442Z,93.00
2019-02-05T20:06:05.419Z,93.20
2019-02-05T20:08:51.315Z,93.40
2019-02-05T20:11:37.398Z,93.10
2019-02-05T20:14:23.292Z,92.60
2019-02-05T20:17:09.265Z,92.80
2019-02-05T20:19:55.222Z,93.70
2019-02-05T20:22:41.113Z,94.80
2019-02-05T20:25:27.308Z,95.10
2019-02-05T20:28:13.404Z,95.70
2019-02-05T20:30:59.538Z,96.00
2019-02-05T20:33:49.932Z,96.70
2019-02-05T20:36:33.211Z,97.10
2019-02-05T20:39:19.399Z,97.40
2019-02-05T20:42:05.388Z,97.50
2019-02-05T20:44:51.296Z,97.20
2019-02-05T20:47:37.383Z,96.90
2019-02-05T20:50:17.885Z,96.60
2019-02-05T20:53:13.366Z,96.70
2019-02-05T20:55:51.807Z,96.40
2019-02-05T20:58:37.922Z,96.90
2019-02-05T21:01:23.826Z,97.50
2019-02-05T21:04:09.787Z,97.30
2019-02-05T21:06:56.002Z,97.80
2019-02-05T21:09:42.323Z,97.20
2019-02-05T21:12:28.275Z,96.90
2019-02-05T21:15:14.761Z,97.10
2019-02-05T21:18:00.759Z,97.50
2019-02-05T21:20:46.742Z,98.30
2019-02-05T21:23:32.642Z,98.40
2019-02-05T21:26:18.527Z,98.70
2019-02-05T21:29:04.931Z,98.90
2019-02-05T21:31:50.807Z,98.90
2019-02-05T21:34:36.711Z,99.20
2019-02-05T21:37:22.836Z,99.90
2019-02-05T21:40:31.559Z,99.90
2019-02-05T21:43:18.557Z,99.70
2019-02-05T21:46:04.447Z,99.90
2019-02-05T21:48:50.350Z,99.90
2019-02-05T21:51:40.425Z,99.90
2019-02-05T21:54:24.034Z,99.90
2019-02-05T21:57:09.916Z,99.90
2019-02-05T21:59:55.843Z,99.90
2019-02-05T22:02:41.751Z,99.90
2019-02-05T22:05:28.621Z,99.90
2019-02-05T22:08:14.817Z,99.90
2019-02-05T22:11:00.853Z,99.90
2019-02-05T22:13:46.813Z,99.90
2019-02-05T22:16:32.701Z,99.90
2019-02-05T22:19:21.011Z,99.90
2019-02-05T22:22:06.383Z,99.90
2019-02-05T22:24:52.521Z,99.90
2019-02-05T22:27:38.398Z,99.90
2019-02-05T22:30:28.163Z,99.90
2019-02-05T22:33:13.349Z,99.90
2019-02-05T22:35:59.337Z,99.90
2019-02-05T22:38:45.882Z,99.90
2019-02-05T22:41:33.922Z,99.90
2019-02-05T22:44:19.911Z,99.90
2019-02-05T22:47:06.086Z,99.90
2019-02-05T22:49:45.458Z,99.90
2019-02-05T22:52:31.579Z,99.90
2019-02-05T22:55:17.894Z,99.90
2019-02-05T22:58:04.276Z,99.90
2019-02-05T23:01:10.051Z,99.90
2019-02-05T23:04:17.730Z,99.90
2019-02-05T23:07:25.419Z,99.90
2019-02-05T23:10:31.199Z,99.90
2019-02-05T23:13:17.215Z,99.90
2019-02-05T23:16:03.306Z,99.90
2019-02-05T23:18:49.427Z,99.90
2019-02-05T23:21:35.383Z,99.90
2019-02-05T23:24:21.481Z,99.90
2019-02-05T23:27:35.915Z,99.90
2019-02-05T23:30:22.869Z,99.90
2019-02-05T23:33:08.856Z,99.90
2019-02-05T23:35:54.739Z,99.90
2019-02-05T23:38:42.324Z,99.90
2019-02-05T23:41:28.412Z,99.90
2019-02-05T23:44:14.307Z,99.90
2019-02-05T23:47:00.194Z,99.90
2019-02-05T23:49:39.829Z,99.90
2019-02-05T23:52:25.719Z,99.90
2019-02-05T23:55:12.234Z,99.90
2019-02-05T23:57:58.182Z,99.90
